Occitan Key — C6CR5 — position and weather

sailwx.info

Track history (hours):
 
Tides and Currents Weather Stations Pressure Air Temp Water Temp Dewpoint Dewpoint Depression Visibility Wind Speed Wind Dir Waves Ship Positions

Occitan Key

Last reported at 2018-Jun-16 06:06 UTC. Time now 2018-Jun-18 19:08 UTC.
Position N 31°27' W 080°07'.

Length 165 m; draft 8.2 m.

Type: Cargo ship. MMSI: 311000551.

Date/timePositionNaut miles runAvg speedWind from/ knotsBaromVisibWave heightAir tempDewpointWater temp
2018-Jun-16 06:06N 31°27' W 080°07'212.4
2018-Jun-16 05:58N 31°28' W 080°05'511.5
2018-Jun-16 05:30N 31°31' W 080°00'611.3
2018-Jun-16 04:59N 31°34' W 079°54'6611.6
2018-Jun-15 23:14N 32°05' W 078°45'44410.0
2018-Jun-14 02:49N 38°52' W 075°06'4 9.5
2018-Jun-14 02:27N 38°55' W 075°09'4 8.8
2018-Jun-14 02:00N 38°58' W 075°12'1 1.3
2018-Jun-14 01:06N 38°59' W 075°13'0 0.0
2018-Jun-14 00:48N 38°59' W 075°13'0 0.1
2018-Jun-14 00:24N 38°59' W 075°13'0 0.1
2018-Jun-13 23:57N 38°59' W 075°13'0 0.0
2018-Jun-13 23:27N 38°59' W 075°13'0 0.0
2018-Jun-13 21:21N 38°59' W 075°13'0 0.4
2018-Jun-13 20:57N 38°59' W 075°12'0 0.1
2018-Jun-13 20:30N 38°59' W 075°12'0 0.0
2018-Jun-13 20:00N 38°59' W 075°12'0 0.0
2018-Jun-13 19:15N 38°59' W 075°12'0 0.0
2018-Jun-13 18:54N 38°59' W 075°12'0 0.0
2018-Jun-13 18:30N 38°59' W 075°12'0 0.0
2018-Jun-13 17:51N 38°59' W 075°12'0 0.0
2018-Jun-13 17:27N 38°59' W 075°12'0 0.0
2018-Jun-13 17:00N 38°59' W 075°12'0 0.0
2018-Jun-13 16:30N 38°59' W 075°12'0 0.1
2018-Jun-13 16:00N 38°59' W 075°12'0 0.0
2018-Jun-13 15:30N 38°59' W 075°12'0 0.2
2018-Jun-13 15:00N 38°59' W 075°12'0 0.2
2018-Jun-13 14:30N 38°59' W 075°13'0 0.0
2018-Jun-13 11:03N 38°59' W 075°13'0 0.2
2018-Jun-13 11:00N 38°59' W 075°13'0 0.0
2018-Jun-13 10:30N 38°59' W 075°13'0 0.1
2018-Jun-13 09:48N 38°59' W 075°13'0 0.4
2018-Jun-13 09:30N 38°59' W 075°12'0 0.1
2018-Jun-13 09:00N 38°59' W 075°12'0 0.0
2018-Jun-13 08:30N 38°59' W 075°12'0 0.0
2018-Jun-13 06:57N 38°59' W 075°12'0 0.0
2018-Jun-13 06:30N 38°59' W 075°12'0 0.0
2018-Jun-13 06:00N 38°59' W 075°12'0 0.0
2018-Jun-13 05:24N 38°59' W 075°12'0 0.1
2018-Jun-13 05:00N 38°59' W 075°12'0 0.0
2018-Jun-13 04:30N 38°59' W 075°12'0 0.0
2018-Jun-13 04:00N 38°59' W 075°12'0 0.0
2018-Jun-13 03:27N 38°59' W 075°13'0 0.0
2018-Jun-13 03:00N 38°59' W 075°13'0 0.2
2018-Jun-13 02:09N 38°59' W 075°13'0 0.1
2018-Jun-13 00:45N 38°59' W 075°13'0 0.0
2018-Jun-13 00:21N 38°59' W 075°13'0 0.0
2018-Jun-12 23:54N 38°59' W 075°13'0 0.0
2018-Jun-12 23:27N 38°59' W 075°13'0 0.1
2018-Jun-12 23:00N 38°59' W 075°13'1 1.1
2018-Jun-12 22:30N 38°58' W 075°12'4 8.3
2018-Jun-12 22:00N 38°55' W 075°09'3 6.3
2018-Jun-12 21:30N 38°58' W 075°07'510.7
2018-Jun-12 21:00N 39°03' W 075°10'611.4
2018-Jun-12 20:30N 39°08' W 075°14'612.3
2018-Jun-12 20:00N 39°13' W 075°18'713.5
2018-Jun-12 19:31N 39°18' W 075°23'713.9
2018-Jun-12 19:00N 39°24' W 075°29'713.2
2018-Jun-12 18:30N 39°29' W 075°34'612.7
2018-Jun-12 18:00N 39°36' W 075°34'510.9
2018-Jun-12 17:30N 39°41' W 075°31'510.2
2018-Jun-12 17:00N 39°45' W 075°29'4 6.8
2018-Jun-12 16:28N 39°48' W 075°26'0 0.4
2018-Jun-12 15:58N 39°48' W 075°26'0 0.0
2018-Jun-12 15:28N 39°48' W 075°26'0 0.0
2018-Jun-12 14:58N 39°48' W 075°26'0 0.0
2018-Jun-12 14:28N 39°48' W 075°26'0 0.0
2018-Jun-12 13:58N 39°48' W 075°26'0 0.0
2018-Jun-12 13:28N 39°48' W 075°26'0 0.0
2018-Jun-12 12:58N 39°48' W 075°26'0 0.0
2018-Jun-12 12:28N 39°48' W 075°26'0 0.0
2018-Jun-12 11:58N 39°48' W 075°26'0 0.0
2018-Jun-12 11:28N 39°48' W 075°26'0 0.0
2018-Jun-12 10:58N 39°48' W 075°26'0 0.0
2018-Jun-12 10:28N 39°48' W 075°26'0 0.0
2018-Jun-12 09:58N 39°48' W 075°26'0 0.0
2018-Jun-12 09:28N 39°48' W 075°26'0 0.0
2018-Jun-12 08:58N 39°48' W 075°26'0 0.0
2018-Jun-12 08:28N 39°48' W 075°26'0 0.0
2018-Jun-12 07:58N 39°48' W 075°26'0 0.0
2018-Jun-12 07:28N 39°48' W 075°26'0 0.0
2018-Jun-12 06:58N 39°48' W 075°26'0 0.0
2018-Jun-12 06:28N 39°48' W 075°26'0 0.0
2018-Jun-12 05:58N 39°48' W 075°26'0 0.0
2018-Jun-12 05:28N 39°48' W 075°26'0 0.0
2018-Jun-12 04:58N 39°48' W 075°26'0 0.0
2018-Jun-12 04:28N 39°48' W 075°26'0 0.0
2018-Jun-12 03:58N 39°48' W 075°26'0 0.0
2018-Jun-12 03:28N 39°48' W 075°26'0 0.0
2018-Jun-12 02:58N 39°48' W 075°26'0 0.0
2018-Jun-12 02:25N 39°48' W 075°26'0 0.0
2018-Jun-12 01:58N 39°48' W 075°26'0 0.0
2018-Jun-12 01:28N 39°48' W 075°26'0 0.0
2018-Jun-12 00:58N 39°48' W 075°26'0 0.0
2018-Jun-12 00:28N 39°48' W 075°26'0 0.0
2018-Jun-11 23:58N 39°48' W 075°26'0 0.0
2018-Jun-11 23:28N 39°48' W 075°26'0 0.0
2018-Jun-11 22:58N 39°48' W 075°26'0 0.0
2018-Jun-11 22:28N 39°48' W 075°26'0 0.0
2018-Jun-11 21:58N 39°48' W 075°26'0 0.0
2018-Jun-11 21:28N 39°48' W 075°26'0 0.0
2018-Jun-11 20:58N 39°48' W 075°26'0 0.0
2018-Jun-11 20:28N 39°48' W 075°26'0 0.0
2018-Jun-11 19:58N 39°48' W 075°26'0 0.0
2018-Jun-11 19:28N 39°48' W 075°26'0 0.0
2018-Jun-11 18:58N 39°48' W 075°26'0 0.0
2018-Jun-11 18:28N 39°48' W 075°26'0 0.0
2018-Jun-11 17:58N 39°48' W 075°26'0 0.0
2018-Jun-11 17:28N 39°48' W 075°26'0 0.0
2018-Jun-11 16:58N 39°48' W 075°26'0 0.0
2018-Jun-11 16:28N 39°48' W 075°26'0 0.0
2018-Jun-11 16:00N 39°48' W 075°26'0 0.9
2018-Jun-11 15:30N 39°48' W 075°25'1 1.5
2018-Jun-11 15:01N 39°48' W 075°24'0 0.0
2018-Jun-11 14:31N 39°48' W 075°24'0 0.0
2018-Jun-11 13:58N 39°48' W 075°24'0 0.1
2018-Jun-11 13:31N 39°48' W 075°25'0 0.2
2018-Jun-11 13:01N 39°48' W 075°24'0 0.2
2018-Jun-11 12:31N 39°48' W 075°25'0 0.1
2018-Jun-11 12:01N 39°48' W 075°25'0 0.3
2018-Jun-11 11:30N 39°48' W 075°25'0 0.2
2018-Jun-11 11:01N 39°48' W 075°25'0 0.1
2018-Jun-11 10:27N 39°48' W 075°25'0 0.0
2018-Jun-11 09:58N 39°48' W 075°25'0 0.0
2018-Jun-11 09:28N 39°48' W 075°25'0 0.0
2018-Jun-11 09:01N 39°48' W 075°25'0 0.0
2018-Jun-11 08:31N 39°48' W 075°25'0 0.0
2018-Jun-11 08:01N 39°48' W 075°25'0 0.0
2018-Jun-11 07:28N 39°48' W 075°25'0 0.1
2018-Jun-11 07:01N 39°48' W 075°25'0 0.0
2018-Jun-11 06:28N 39°48' W 075°25'0 0.0
2018-Jun-11 05:58N 39°48' W 075°25'0 0.0
2018-Jun-11 05:28N 39°48' W 075°25'0 0.0
2018-Jun-11 04:58N 39°48' W 075°25'0 0.0
2018-Jun-11 04:28N 39°48' W 075°25'0 0.2
2018-Jun-11 03:58N 39°48' W 075°25'0 0.2
2018-Jun-11 03:31N 39°48' W 075°25'0 0.0
2018-Jun-11 03:01N 39°48' W 075°24'0 0.0
2018-Jun-11 02:25N 39°48' W 075°24'0 0.0
2018-Jun-11 01:58N 39°48' W 075°24'0 0.0
2018-Jun-11 01:31N 39°48' W 075°24'0 0.0
2018-Jun-11 01:01N 39°48' W 075°24'1 1.4
2018-Jun-11 00:25N 39°48' W 075°25'611.1
2018-Jun-10 23:55N 39°44' W 075°30'1 1.9
2018-Jun-10 23:29N 39°44' W 075°30'511.2
2018-Jun-10 23:00N 39°39' W 075°33'611.3
2018-Jun-10 22:30N 39°34' W 075°33'613.0
2018-Jun-10 22:01N 39°27' W 075°34'713.5
2018-Jun-10 21:30N 39°22' W 075°28'713.3
2018-Jun-10 20:59N 39°17' W 075°22'1628.8
2018-Jun-10 20:26N 39°04' W 075°10'613.2
2018-Jun-10 19:59N 38°58' W 075°07'40 9.7
2018-Jun-10 15:52N 38°26' W 074°37'511.5
2018-Jun-10 15:28N 38°24' W 074°32'  
Track history (hours):
 
Tides and Currents Weather Stations Pressure Air Temp Water Temp Dewpoint Dewpoint Depression Visibility Wind Speed Wind Dir Waves Ship Positions

Occitan Key

Last reported at 2018-Jun-16 06:06 UTC. Time now 2018-Jun-18 19:08 UTC.
Position N 31°27' W 080°07'.

Length 165 m; draft 8.2 m.

Type: Cargo ship. MMSI: 311000551.

Date/timePositionNaut miles runAvg speedWind from/ knotsBaromVisibWave heightAir tempDewpointWater temp
2018-Jun-16 06:06N 31°27' W 080°07'212.4
2018-Jun-16 05:58N 31°28' W 080°05'511.5
2018-Jun-16 05:30N 31°31' W 080°00'611.3
2018-Jun-16 04:59N 31°34' W 079°54'6611.6
2018-Jun-15 23:14N 32°05' W 078°45'44410.0
2018-Jun-14 02:49N 38°52' W 075°06'4 9.5
2018-Jun-14 02:27N 38°55' W 075°09'4 8.8
2018-Jun-14 02:00N 38°58' W 075°12'1 1.3
2018-Jun-14 01:06N 38°59' W 075°13'0 0.0
2018-Jun-14 00:48N 38°59' W 075°13'0 0.1
2018-Jun-14 00:24N 38°59' W 075°13'0 0.1
2018-Jun-13 23:57N 38°59' W 075°13'0 0.0
2018-Jun-13 23:27N 38°59' W 075°13'0 0.0
2018-Jun-13 21:21N 38°59' W 075°13'0 0.4
2018-Jun-13 20:57N 38°59' W 075°12'0 0.1
2018-Jun-13 20:30N 38°59' W 075°12'0 0.0
2018-Jun-13 20:00N 38°59' W 075°12'0 0.0
2018-Jun-13 19:15N 38°59' W 075°12'0 0.0
2018-Jun-13 18:54N 38°59' W 075°12'0 0.0
2018-Jun-13 18:30N 38°59' W 075°12'0 0.0
2018-Jun-13 17:51N 38°59' W 075°12'0 0.0
2018-Jun-13 17:27N 38°59' W 075°12'0 0.0
2018-Jun-13 17:00N 38°59' W 075°12'0 0.0
2018-Jun-13 16:30N 38°59' W 075°12'0 0.1
2018-Jun-13 16:00N 38°59' W 075°12'0 0.0
2018-Jun-13 15:30N 38°59' W 075°12'0 0.2
2018-Jun-13 15:00N 38°59' W 075°12'0 0.2
2018-Jun-13 14:30N 38°59' W 075°13'0 0.0
2018-Jun-13 11:03N 38°59' W 075°13'0 0.2
2018-Jun-13 11:00N 38°59' W 075°13'0 0.0
2018-Jun-13 10:30N 38°59' W 075°13'0 0.1
2018-Jun-13 09:48N 38°59' W 075°13'0 0.4
2018-Jun-13 09:30N 38°59' W 075°12'0 0.1
2018-Jun-13 09:00N 38°59' W 075°12'0 0.0
2018-Jun-13 08:30N 38°59' W 075°12'0 0.0
2018-Jun-13 06:57N 38°59' W 075°12'0 0.0
2018-Jun-13 06:30N 38°59' W 075°12'0 0.0
2018-Jun-13 06:00N 38°59' W 075°12'0 0.0
2018-Jun-13 05:24N 38°59' W 075°12'0 0.1
2018-Jun-13 05:00N 38°59' W 075°12'0 0.0
2018-Jun-13 04:30N 38°59' W 075°12'0 0.0
2018-Jun-13 04:00N 38°59' W 075°12'0 0.0
2018-Jun-13 03:27N 38°59' W 075°13'0 0.0
2018-Jun-13 03:00N 38°59' W 075°13'0 0.2
2018-Jun-13 02:09N 38°59' W 075°13'0 0.1
2018-Jun-13 00:45N 38°59' W 075°13'0 0.0
2018-Jun-13 00:21N 38°59' W 075°13'0 0.0
2018-Jun-12 23:54N 38°59' W 075°13'0 0.0
2018-Jun-12 23:27N 38°59' W 075°13'0 0.1
2018-Jun-12 23:00N 38°59' W 075°13'1 1.1
2018-Jun-12 22:30N 38°58' W 075°12'4 8.3
2018-Jun-12 22:00N 38°55' W 075°09'3 6.3
2018-Jun-12 21:30N 38°58' W 075°07'510.7
2018-Jun-12 21:00N 39°03' W 075°10'611.4
2018-Jun-12 20:30N 39°08' W 075°14'612.3
2018-Jun-12 20:00N 39°13' W 075°18'713.5
2018-Jun-12 19:31N 39°18' W 075°23'713.9
2018-Jun-12 19:00N 39°24' W 075°29'713.2
2018-Jun-12 18:30N 39°29' W 075°34'612.7
2018-Jun-12 18:00N 39°36' W 075°34'510.9
2018-Jun-12 17:30N 39°41' W 075°31'510.2
2018-Jun-12 17:00N 39°45' W 075°29'4 6.8
2018-Jun-12 16:28N 39°48' W 075°26'0 0.4
2018-Jun-12 15:58N 39°48' W 075°26'0 0.0
2018-Jun-12 15:28N 39°48' W 075°26'0 0.0
2018-Jun-12 14:58N 39°48' W 075°26'0 0.0
2018-Jun-12 14:28N 39°48' W 075°26'0 0.0
2018-Jun-12 13:58N 39°48' W 075°26'0 0.0
2018-Jun-12 13:28N 39°48' W 075°26'0 0.0
2018-Jun-12 12:58N 39°48' W 075°26'0 0.0
2018-Jun-12 12:28N 39°48' W 075°26'0 0.0
2018-Jun-12 11:58N 39°48' W 075°26'0 0.0
2018-Jun-12 11:28N 39°48' W 075°26'0 0.0
2018-Jun-12 10:58N 39°48' W 075°26'0 0.0
2018-Jun-12 10:28N 39°48' W 075°26'0 0.0
2018-Jun-12 09:58N 39°48' W 075°26'0 0.0
2018-Jun-12 09:28N 39°48' W 075°26'0 0.0
2018-Jun-12 08:58N 39°48' W 075°26'0 0.0
2018-Jun-12 08:28N 39°48' W 075°26'0 0.0
2018-Jun-12 07:58N 39°48' W 075°26'0 0.0
2018-Jun-12 07:28N 39°48' W 075°26'0 0.0
2018-Jun-12 06:58N 39°48' W 075°26'0 0.0
2018-Jun-12 06:28N 39°48' W 075°26'0 0.0
2018-Jun-12 05:58N 39°48' W 075°26'0 0.0
2018-Jun-12 05:28N 39°48' W 075°26'0 0.0
2018-Jun-12 04:58N 39°48' W 075°26'0 0.0
2018-Jun-12 04:28N 39°48' W 075°26'0 0.0
2018-Jun-12 03:58N 39°48' W 075°26'0 0.0
2018-Jun-12 03:28N 39°48' W 075°26'0 0.0
2018-Jun-12 02:58N 39°48' W 075°26'0 0.0
2018-Jun-12 02:25N 39°48' W 075°26'0 0.0
2018-Jun-12 01:58N 39°48' W 075°26'0 0.0
2018-Jun-12 01:28N 39°48' W 075°26'0 0.0
2018-Jun-12 00:58N 39°48' W 075°26'0 0.0
2018-Jun-12 00:28N 39°48' W 075°26'0 0.0
2018-Jun-11 23:58N 39°48' W 075°26'0 0.0
2018-Jun-11 23:28N 39°48' W 075°26'0 0.0
2018-Jun-11 22:58N 39°48' W 075°26'0 0.0
2018-Jun-11 22:28N 39°48' W 075°26'0 0.0
2018-Jun-11 21:58N 39°48' W 075°26'0 0.0
2018-Jun-11 21:28N 39°48' W 075°26'0 0.0
2018-Jun-11 20:58N 39°48' W 075°26'0 0.0
2018-Jun-11 20:28N 39°48' W 075°26'0 0.0
2018-Jun-11 19:58N 39°48' W 075°26'0 0.0
2018-Jun-11 19:28N 39°48' W 075°26'0 0.0
2018-Jun-11 18:58N 39°48' W 075°26'0 0.0
2018-Jun-11 18:28N 39°48' W 075°26'0 0.0
2018-Jun-11 17:58N 39°48' W 075°26'0 0.0
2018-Jun-11 17:28N 39°48' W 075°26'0 0.0
2018-Jun-11 16:58N 39°48' W 075°26'0 0.0
2018-Jun-11 16:28N 39°48' W 075°26'0 0.0
2018-Jun-11 16:00N 39°48' W 075°26'0 0.9
2018-Jun-11 15:30N 39°48' W 075°25'1 1.5
2018-Jun-11 15:01N 39°48' W 075°24'0 0.0
2018-Jun-11 14:31N 39°48' W 075°24'0 0.0
2018-Jun-11 13:58N 39°48' W 075°24'0 0.1
2018-Jun-11 13:31N 39°48' W 075°25'0 0.2
2018-Jun-11 13:01N 39°48' W 075°24'0 0.2
2018-Jun-11 12:31N 39°48' W 075°25'0 0.1
2018-Jun-11 12:01N 39°48' W 075°25'0 0.3
2018-Jun-11 11:30N 39°48' W 075°25'0 0.2
2018-Jun-11 11:01N 39°48' W 075°25'0 0.1
2018-Jun-11 10:27N 39°48' W 075°25'0 0.0
2018-Jun-11 09:58N 39°48' W 075°25'0 0.0
2018-Jun-11 09:28N 39°48' W 075°25'0 0.0
2018-Jun-11 09:01N 39°48' W 075°25'0 0.0
2018-Jun-11 08:31N 39°48' W 075°25'0 0.0
2018-Jun-11 08:01N 39°48' W 075°25'0 0.0
2018-Jun-11 07:28N 39°48' W 075°25'0 0.1
2018-Jun-11 07:01N 39°48' W 075°25'0 0.0
2018-Jun-11 06:28N 39°48' W 075°25'0 0.0
2018-Jun-11 05:58N 39°48' W 075°25'0 0.0
2018-Jun-11 05:28N 39°48' W 075°25'0 0.0
2018-Jun-11 04:58N 39°48' W 075°25'0 0.0
2018-Jun-11 04:28N 39°48' W 075°25'0 0.2
2018-Jun-11 03:58N 39°48' W 075°25'0 0.2
2018-Jun-11 03:31N 39°48' W 075°25'0 0.0
2018-Jun-11 03:01N 39°48' W 075°24'0 0.0
2018-Jun-11 02:25N 39°48' W 075°24'0 0.0
2018-Jun-11 01:58N 39°48' W 075°24'0 0.0
2018-Jun-11 01:31N 39°48' W 075°24'0 0.0
2018-Jun-11 01:01N 39°48' W 075°24'1 1.4
2018-Jun-11 00:25N 39°48' W 075°25'611.1
2018-Jun-10 23:55N 39°44' W 075°30'1 1.9
2018-Jun-10 23:29N 39°44' W 075°30'511.2
2018-Jun-10 23:00N 39°39' W 075°33'611.3
2018-Jun-10 22:30N 39°34' W 075°33'613.0
2018-Jun-10 22:01N 39°27' W 075°34'713.5
2018-Jun-10 21:30N 39°22' W 075°28'713.3
2018-Jun-10 20:59N 39°17' W 075°22'1628.8
2018-Jun-10 20:26N 39°04' W 075°10'613.2
2018-Jun-10 19:59N 38°58' W 075°07'40 9.7
2018-Jun-10 15:52N 38°26' W 074°37'511.5
2018-Jun-10 15:28N 38°24' W 074°32'  

Dump ship's entire track history